BAW139 EGLL-VABB
Flight info
| Callsign | BAW139 |
|---|---|
| Flight time | N/A |
| Altitude | 35000 |
| Route | DET1J DET L6 DVR UL9 KONAN DCT KOK DCT KOMOB DCT PITES DCT BABEG DCT KUMOM DCT VEKEN DCT ELTIB DCT AKIKA DCT MAVAR DCT BITLA UN132 KEA UL607 PAXIS L607 NABSI P557 OBRAN L321 REXUM M872 BOPOB/N0488F370 M872 PMA Y214 RAPMA DCT MEVDO DCT ALROK DCT DEBIN DCT MIDGU M440 TULBU N881 AMBOS M700 PARAR/N0488F390 N571 SUGID KETOR2A |
| Aircraft | B77W/H-SDE1E2E3FGHIJ2J3J4J5M1RWXY/LB1D1 |
Departure
| Time | N/A |
|---|---|
| Airport | London Heathrow Airport (EGLL) |
Arrival
| Time | 2026-05-05 04:25 |
|---|---|
| Airport | Chhatrapati Shivaji Maharaj International Airport (VABB) |
| Time | Latitude | Longitude | Altitude | Speed | Heading |
|---|---|---|---|---|---|
| 2026-05-05 04:15 | 18.67423 | 72.53421 | 8951 ft | 296 kts | 66° |
| 2026-05-05 04:16 | 18.69047 | 72.57365 | 8436 ft | 289 kts | 66° |
| 2026-05-05 04:16 | 18.70629 | 72.61212 | 8121 ft | 282 kts | 65° |
| 2026-05-05 04:16 | 18.72184 | 72.64993 | 7787 ft | 281 kts | 65° |
| 2026-05-05 04:16 | 18.73743 | 72.68788 | 7421 ft | 282 kts | 66° |
| 2026-05-05 04:17 | 18.75307 | 72.72596 | 7047 ft | 282 kts | 65° |
| 2026-05-05 04:17 | 18.76866 | 72.76397 | 6682 ft | 282 kts | 65° |
| 2026-05-05 04:17 | 18.78428 | 72.80206 | 6321 ft | 282 kts | 65° |
| 2026-05-05 04:17 | 18.79982 | 72.83998 | 5956 ft | 281 kts | 65° |
| 2026-05-05 04:18 | 18.81532 | 72.87782 | 5572 ft | 280 kts | 65° |
| 2026-05-05 04:18 | 18.83680 | 72.93032 | 5036 ft | 277 kts | 66° |
| 2026-05-05 04:18 | 18.89296 | 73.06777 | 3665 ft | 273 kts | 67° |
| 2026-05-05 04:18 | 18.90110 | 73.08578 | 3447 ft | 271 kts | 55° |
| 2026-05-05 04:19 | 18.91497 | 73.09908 | 3337 ft | 270 kts | 25° |
| 2026-05-05 04:19 | 18.93214 | 73.10379 | 3134 ft | 242 kts | 355° |
| 2026-05-05 04:19 | 18.94759 | 73.10132 | 3087 ft | 210 kts | 345° |
| 2026-05-05 04:19 | 18.96141 | 73.09833 | 3068 ft | 200 kts | 346° |
| 2026-05-05 04:20 | 19.00743 | 73.08779 | 2993 ft | 199 kts | 345° |
| 2026-05-05 04:20 | 19.04708 | 73.07883 | 3017 ft | 198 kts | 345° |
| 2026-05-05 04:20 | 19.06050 | 73.07572 | 3013 ft | 196 kts | 345° |
| 2026-05-05 04:20 | 19.07372 | 73.07258 | 3017 ft | 193 kts | 341° |
| 2026-05-05 04:21 | 19.08458 | 73.06511 | 3043 ft | 186 kts | 302° |
| 2026-05-05 04:21 | 19.08835 | 73.05254 | 3030 ft | 179 kts | 274° |
| 2026-05-05 04:21 | 19.08978 | 73.03881 | 2917 ft | 198 kts | 274° |
| 2026-05-05 04:21 | 19.09069 | 73.02432 | 2670 ft | 195 kts | 270° |
| 2026-05-05 04:22 | 19.09070 | 73.01037 | 2443 ft | 182 kts | 268° |
| 2026-05-05 04:22 | 19.09053 | 72.99750 | 2194 ft | 167 kts | 267° |
| 2026-05-05 04:22 | 19.09036 | 72.98563 | 2031 ft | 161 kts | 268° |
| 2026-05-05 04:22 | 19.09018 | 72.97373 | 1809 ft | 160 kts | 267° |
| 2026-05-05 04:23 | 19.09001 | 72.96195 | 1602 ft | 160 kts | 266° |
| 2026-05-05 04:23 | 19.08987 | 72.95039 | 1393 ft | 151 kts | 266° |
| 2026-05-05 04:23 | 19.08971 | 72.93952 | 1201 ft | 145 kts | 267° |
| 2026-05-05 04:23 | 19.08958 | 72.92941 | 1029 ft | 133 kts | 268° |
| 2026-05-05 04:24 | 19.08943 | 72.91906 | 881 ft | 149 kts | 266° |
| 2026-05-05 04:24 | 19.08926 | 72.90813 | 679 ft | 150 kts | 267° |
| 2026-05-05 04:24 | 19.08914 | 72.89714 | 463 ft | 148 kts | 268° |
| 2026-05-05 04:25 | 19.08883 | 72.87630 | 62 ft | 135 kts | 266° |
| 2026-05-05 04:25 | 19.08881 | 72.86714 | 31 ft | 104 kts | 269° |
| 2026-05-05 04:25 | 19.08863 | 72.86163 | 28 ft | 37 kts | 269° |
| 2026-05-05 04:25 | 19.08918 | 72.85898 | 29 ft | 28 kts | 298° |
| 2026-05-05 04:26 | 19.08988 | 72.85813 | 30 ft | 12 kts | 351° |
| 2026-05-05 04:26 | 19.09026 | 72.85859 | 29 ft | 8 kts | 81° |
| 2026-05-05 04:26 | 19.09030 | 72.85927 | 29 ft | 12 kts | 89° |
| 2026-05-05 04:26 | 19.09031 | 72.86019 | 29 ft | 13 kts | 89° |
| 2026-05-05 04:27 | 19.09033 | 72.86118 | 29 ft | 14 kts | 88° |
| 2026-05-05 04:27 | 19.09034 | 72.86223 | 29 ft | 14 kts | 88° |
| 2026-05-05 04:27 | 19.09036 | 72.86327 | 29 ft | 14 kts | 89° |
| 2026-05-05 04:27 | 19.09035 | 72.86432 | 29 ft | 14 kts | 93° |
| 2026-05-05 04:28 | 19.09039 | 72.86539 | 30 ft | 15 kts | 89° |
| 2026-05-05 04:28 | 19.09042 | 72.86689 | 31 ft | 24 kts | 89° |
| 2026-05-05 04:28 | 19.09053 | 72.86779 | 31 ft | 8 kts | 54° |
| 2026-05-05 04:28 | 19.09106 | 72.86829 | 30 ft | 13 kts | 53° |
| 2026-05-05 04:29 | 19.09130 | 72.86922 | 30 ft | 13 kts | 86° |
| 2026-05-05 04:29 | 19.09132 | 72.87022 | 30 ft | 15 kts | 89° |
| 2026-05-05 04:29 | 19.09133 | 72.87141 | 30 ft | 16 kts | 90° |
| 2026-05-05 04:29 | 19.09142 | 72.87247 | 29 ft | 11 kts | 63° |
| 2026-05-05 04:30 | 19.09201 | 72.87257 | 30 ft | 13 kts | 340° |
| 2026-05-05 04:30 | 19.09283 | 72.87228 | 30 ft | 12 kts | 345° |
| 2026-05-05 04:30 | 19.09310 | 72.87220 | 30 ft | 1 kts | 344° |
| 2026-05-05 04:30 | 19.09319 | 72.87218 | 30 ft | 1 kts | 344° |
| 2026-05-05 04:31 | 19.09321 | 72.87217 | 30 ft | 0 kts | 344° |